createdAt,value
2018-02-12T00:02:01.007Z,41.75
2018-02-12T00:04:28.767Z,41.40
2018-02-12T00:06:56.581Z,44.53
2018-02-12T00:09:24.347Z,43.90
2018-02-12T00:11:52.871Z,44.17
2018-02-12T00:14:20.688Z,42.28
2018-02-12T00:16:48.443Z,46.63
2018-02-12T00:19:16.208Z,44.90
2018-02-12T00:21:44.039Z,49.08
2018-02-12T00:24:11.796Z,47.78
2018-02-12T00:26:39.546Z,46.90
2018-02-12T00:29:07.377Z,47.17
2018-02-12T00:31:35.899Z,47.75
2018-02-12T00:34:03.656Z,48.40
2018-02-12T00:36:31.469Z,47.35
2018-02-12T00:38:59.996Z,46.20
2018-02-12T00:41:27.760Z,50.08
2018-02-12T00:43:55.566Z,55.60
2018-02-12T00:46:23.324Z,52.88
2018-02-12T00:48:51.076Z,52.28
2018-02-12T00:51:18.892Z,56.13
2018-02-12T00:53:46.650Z,58.83
2018-02-12T00:56:14.408Z,55.60
2018-02-12T00:58:42.223Z,53.40
2018-02-12T01:01:10.016Z,73.35
2018-02-12T01:03:38.539Z,74.50
2018-02-12T01:06:06.371Z,68.20
2018-02-12T01:08:34.139Z,70.30
2018-02-12T01:11:01.903Z,68.00
2018-02-12T01:13:29.715Z,51.40
2018-02-12T01:15:57.483Z,48.05
2018-02-12T01:18:25.239Z,55.30
2018-02-12T01:20:53.049Z,48.10
2018-02-12T01:23:20.809Z,40.45
2018-02-12T01:25:48.567Z,45.47
2018-02-12T01:28:16.391Z,42.75
2018-02-12T01:30:44.151Z,43.38
2018-02-12T01:33:11.912Z,44.90
2018-02-12T01:35:39.732Z,42.08
2018-02-12T01:38:07.505Z,41.78
2018-02-12T01:40:36.087Z,37.85
2018-02-12T01:43:04.093Z,41.65
2018-02-12T01:45:31.903Z,36.70
2018-02-12T01:47:59.659Z,40.95
2018-02-12T01:50:27.544Z,37.08
2018-02-12T01:52:55.308Z,37.65
2018-02-12T01:55:23.062Z,36.30
2018-02-12T01:57:50.872Z,39.80
2018-02-12T02:00:18.635Z,34.60
2018-02-12T02:02:47.176Z,37.10
2018-02-12T02:05:14.995Z,34.53
2018-02-12T02:07:43.528Z,37.45
2018-02-12T02:10:12.057Z,38.15
2018-02-12T02:12:40.632Z,34.33
2018-02-12T02:15:09.152Z,37.92
2018-02-12T02:17:36.919Z,40.90
2018-02-12T02:20:04.760Z,36.92
2018-02-12T02:22:32.577Z,37.38
2018-02-12T02:25:00.396Z,34.90
2018-02-12T02:27:28.206Z,33.42
2018-02-12T02:29:55.960Z,32.88
2018-02-12T02:32:23.713Z,32.10
2018-02-12T02:34:51.532Z,33.78
2018-02-12T02:37:19.290Z,38.45
2018-02-12T02:39:47.059Z,37.28
2018-02-12T02:42:14.885Z,37.90
2018-02-12T02:44:42.652Z,36.35
2018-02-12T02:47:11.180Z,40.12
2018-02-12T02:49:39.019Z,38.70
2018-02-12T02:52:06.787Z,38.70
2018-02-12T02:54:34.538Z,36.90
2018-02-12T02:57:02.356Z,37.33
2018-02-12T02:59:30.116Z,37.70
2018-02-12T03:01:57.892Z,32.50
2018-02-12T03:04:26.000Z,32.70
2018-02-12T03:06:53.764Z,30.20
2018-02-12T03:09:21.534Z,28.52
2018-02-12T03:11:49.352Z,26.87
2018-02-12T03:14:17.116Z,28.87
2018-02-12T03:16:44.871Z,22.73
2018-02-12T03:19:12.687Z,20.75
2018-02-12T03:21:40.447Z,19.48
2018-02-12T03:24:08.216Z,19.40
2018-02-12T03:26:36.028Z,18.10
2018-02-12T03:29:04.555Z,17.98
2018-02-12T03:31:32.323Z,18.55
2018-02-12T03:34:00.139Z,18.42
2018-02-12T03:36:28.669Z,18.42
2018-02-12T03:38:56.430Z,17.45
2018-02-12T03:41:24.252Z,15.40
2018-02-12T03:43:52.778Z,18.02
2018-02-12T03:46:20.555Z,17.20
2018-02-12T03:48:48.367Z,21.90
2018-02-12T03:51:16.166Z,17.50
2018-02-12T03:53:43.950Z,19.40
2018-02-12T03:56:11.766Z,17.50
2018-02-12T03:58:39.525Z,19.17
2018-02-12T04:01:07.280Z,17.62
2018-02-12T04:03:35.102Z,15.43
2018-02-12T04:06:02.860Z,17.35
2018-02-12T04:08:30.634Z,17.10
2018-02-12T04:10:59.218Z,15.15
2018-02-12T04:13:26.980Z,19.30
2018-02-12T04:15:54.740Z,15.57
2018-02-12T04:18:22.805Z,16.42
2018-02-12T04:20:50.567Z,17.83
2018-02-12T04:23:18.324Z,19.83
2018-02-12T04:25:46.144Z,15.57
2018-02-12T04:28:13.908Z,17.12
2018-02-12T04:30:41.674Z,16.77
2018-02-12T04:33:09.489Z,18.23
2018-02-12T04:35:38.016Z,19.52
2018-02-12T04:38:05.768Z,24.35
2018-02-12T04:40:33.608Z,18.50
2018-02-12T04:43:02.137Z,16.98
2018-02-12T04:45:29.902Z,18.30
2018-02-12T04:47:57.721Z,16.20
2018-02-12T04:50:25.483Z,15.30
2018-02-12T04:52:53.243Z,15.13
2018-02-12T04:55:21.058Z,15.95
2018-02-12T04:57:48.820Z,18.25
2018-02-12T05:00:16.595Z,22.08
2018-02-12T05:02:44.412Z,18.17
2018-02-12T05:05:12.176Z,16.92
2018-02-12T05:07:39.943Z,13.70
2018-02-12T05:10:07.757Z,16.15
2018-02-12T05:12:36.276Z,15.15
2018-02-12T05:15:04.057Z,16.33
2018-02-12T05:17:31.871Z,14.32
2018-02-12T05:20:00.398Z,16.92
2018-02-12T05:22:28.172Z,14.80
2018-02-12T05:24:55.984Z,16.67
2018-02-12T05:27:23.740Z,16.25
2018-02-12T05:29:52.259Z,14.43
2018-02-12T05:32:20.075Z,16.12
2018-02-12T05:34:48.596Z,16.17
2018-02-12T05:37:17.117Z,18.02
2018-02-12T05:39:44.933Z,20.55
2018-02-12T05:42:12.693Z,17.73
2018-02-12T05:44:40.453Z,22.02
2018-02-12T05:47:08.269Z,17.95
2018-02-12T05:49:36.024Z,18.80
2018-02-12T05:52:04.561Z,20.12
2018-02-12T05:54:32.367Z,18.15
2018-02-12T05:57:00.116Z,19.65
2018-02-12T05:59:27.888Z,18.75
2018-02-12T06:01:55.706Z,19.00
2018-02-12T06:04:23.474Z,20.52
2018-02-12T06:06:51.240Z,20.02
2018-02-12T06:09:19.053Z,20.65
2018-02-12T06:11:47.580Z,22.23
2018-02-12T06:14:15.346Z,20.62
2018-02-12T06:16:43.164Z,21.05
2018-02-12T06:19:11.687Z,21.58
2018-02-12T06:21:39.449Z,22.10
2018-02-12T06:24:07.269Z,21.80
2018-02-12T06:26:35.806Z,18.37
2018-02-12T06:29:03.564Z,21.12
2018-02-12T06:31:31.385Z,20.98
2018-02-12T06:33:59.181Z,22.98
2018-02-12T06:36:26.943Z,22.45
2018-02-12T06:38:54.760Z,24.10
2018-02-12T06:41:23.308Z,22.37
2018-02-12T06:43:51.067Z,21.90
2018-02-12T06:46:18.896Z,21.37
2018-02-12T06:48:46.650Z,22.15
2018-02-12T06:51:14.416Z,20.75
2018-02-12T06:53:42.234Z,22.42
2018-02-12T06:56:09.991Z,23.25
2018-02-12T06:58:37.775Z,17.45
2018-02-12T07:01:06.360Z,19.40
2018-02-12T07:03:34.882Z,18.27
2018-02-12T07:06:02.644Z,19.27
2018-02-12T07:08:30.467Z,16.35
2018-02-12T07:10:58.994Z,19.42
2018-02-12T07:13:26.752Z,17.98
2018-02-12T07:15:54.568Z,17.85
2018-02-12T07:18:23.094Z,19.20
2018-02-12T07:20:50.851Z,17.25
2018-02-12T07:23:18.675Z,18.25
2018-02-12T07:25:47.209Z,19.48
2018-02-12T07:28:14.975Z,18.02
2018-02-12T07:30:42.793Z,16.20
2018-02-12T07:33:10.569Z,18.90
2018-02-12T07:35:38.344Z,15.73
2018-02-12T07:38:06.156Z,14.90
2018-02-12T07:40:34.687Z,16.40
2018-02-12T07:43:02.452Z,15.00
2018-02-12T07:45:30.283Z,13.57
2018-02-12T07:47:58.043Z,16.17
2018-02-12T07:50:25.804Z,12.93
2018-02-12T07:52:53.616Z,14.05
2018-02-12T07:55:21.395Z,12.50
2018-02-12T07:57:49.164Z,14.35
2018-02-12T08:00:16.984Z,12.45
2018-02-12T08:02:44.758Z,13.02
2018-02-12T08:05:12.508Z,14.30
2018-02-12T08:07:40.397Z,12.48
2018-02-12T08:10:08.159Z,13.55
2018-02-12T08:12:35.927Z,14.93
2018-02-12T08:15:03.790Z,13.82
2018-02-12T08:17:31.547Z,12.63
2018-02-12T08:19:59.308Z,12.40
2018-02-12T08:22:27.130Z,12.93
2018-02-12T08:24:54.887Z,13.40
2018-02-12T08:27:22.651Z,13.15
2018-02-12T08:29:50.482Z,13.00
2018-02-12T08:32:19.011Z,11.57
2018-02-12T08:34:46.776Z,14.38
2018-02-12T08:37:14.588Z,14.77
2018-02-12T08:39:43.137Z,14.00
2018-02-12T08:42:10.895Z,15.10
2018-02-12T08:44:38.725Z,12.70
2018-02-12T08:47:06.480Z,15.02
2018-02-12T08:49:34.240Z,15.90
2018-02-12T08:52:02.079Z,15.35
2018-02-12T08:54:29.839Z,15.65
2018-02-12T08:56:58.371Z,12.07
2018-02-12T08:59:26.187Z,12.37
2018-02-12T09:01:54.726Z,13.30
2018-02-12T09:04:22.504Z,10.57
2018-02-12T09:06:50.329Z,12.07
2018-02-12T09:09:18.085Z,11.52
2018-02-12T09:11:45.844Z,9.05
2018-02-12T09:14:13.660Z,8.40
2018-02-12T09:16:41.430Z,7.12
2018-02-12T09:19:09.958Z,7.22
2018-02-12T09:21:37.780Z,8.38
2018-02-12T09:24:06.308Z,7.40
2018-02-12T09:26:34.064Z,7.37
2018-02-12T09:29:01.872Z,6.65
2018-02-12T09:31:29.678Z,6.60
2018-02-12T09:33:57.428Z,7.70
2018-02-12T09:36:25.267Z,6.85
2018-02-12T09:38:53.035Z,5.82
2018-02-12T09:41:21.564Z,6.70
2018-02-12T09:43:49.370Z,6.25
2018-02-12T09:46:17.890Z,5.57
2018-02-12T09:48:45.640Z,6.32
2018-02-12T09:51:13.450Z,6.35
2018-02-12T09:53:41.217Z,5.53
2018-02-12T09:56:08.985Z,6.60
2018-02-12T09:58:36.808Z,6.03
2018-02-12T10:01:04.574Z,4.43
2018-02-12T10:03:32.336Z,5.40
2018-02-12T10:06:00.148Z,8.80
2018-02-12T10:08:28.684Z,7.28
2018-02-12T10:10:56.439Z,8.30
2018-02-12T10:13:24.253Z,8.05
2018-02-12T10:15:52.780Z,10.93
2018-02-12T10:18:20.539Z,7.10
2018-02-12T10:20:48.362Z,6.57
2018-02-12T10:23:16.883Z,7.18
2018-02-12T10:25:44.631Z,7.93
2018-02-12T10:28:12.461Z,5.68
2018-02-12T10:30:40.973Z,4.97
2018-02-12T10:33:08.737Z,4.97
2018-02-12T10:35:36.549Z,6.35
2018-02-12T10:38:04.325Z,7.53
2018-02-12T10:40:32.848Z,6.55
2018-02-12T10:43:00.654Z,6.47
2018-02-12T10:45:28.407Z,6.80
2018-02-12T10:47:56.175Z,7.57
2018-02-12T10:50:23.983Z,8.60
2018-02-12T10:52:51.738Z,7.00
2018-02-12T10:55:19.495Z,11.48
2018-02-12T10:57:47.342Z,8.90
2018-02-12T11:00:15.864Z,9.32
2018-02-12T11:02:43.621Z,13.00
2018-02-12T11:05:11.431Z,8.88
2018-02-12T11:07:39.187Z,10.20
2018-02-12T11:10:06.934Z,9.80
2018-02-12T11:12:34.758Z,7.65
2018-02-12T11:15:02.511Z,6.78
2018-02-12T11:17:30.275Z,9.80
2018-02-12T11:19:58.163Z,8.65
2018-02-12T11:22:25.935Z,7.70
2018-02-12T11:24:53.709Z,6.70
2018-02-12T11:27:21.530Z,9.10
2018-02-12T11:29:49.303Z,9.15
2018-02-12T11:32:17.060Z,10.13
2018-02-12T11:34:44.871Z,8.70
2018-02-12T11:37:12.640Z,7.75
2018-02-12T11:39:40.395Z,6.00
2018-02-12T11:42:08.213Z,6.37
2018-02-12T11:44:36.019Z,5.20
2018-02-12T11:47:03.771Z,8.25
2018-02-12T11:49:31.581Z,7.20
2018-02-12T11:51:59.328Z,6.05
2018-02-12T11:54:27.851Z,9.93
2018-02-12T11:56:55.676Z,8.93
2018-02-12T11:59:24.199Z,10.60
2018-02-12T12:01:51.956Z,10.80
2018-02-12T12:04:19.768Z,8.52
2018-02-12T12:06:48.290Z,6.15
2018-02-12T12:09:16.043Z,8.00
2018-02-12T12:11:43.859Z,7.68
2018-02-12T12:14:11.608Z,5.97
2018-02-12T12:16:39.368Z,6.37
2018-02-12T12:19:07.184Z,6.45
2018-02-12T12:21:34.935Z,6.60
2018-02-12T12:24:03.459Z,6.80
2018-02-12T12:26:31.267Z,6.95
2018-02-12T12:28:59.796Z,5.40
2018-02-12T12:31:27.547Z,5.37
2018-02-12T12:33:55.364Z,4.53
2018-02-12T12:36:23.136Z,4.37
2018-02-12T12:38:51.655Z,3.80
2018-02-12T12:41:19.475Z,4.37
2018-02-12T12:43:48.003Z,4.72
2018-02-12T12:46:15.752Z,5.97
2018-02-12T12:48:43.563Z,5.03
2018-02-12T12:51:11.323Z,5.00
2018-02-12T12:53:39.076Z,5.10
2018-02-12T12:56:06.879Z,5.15
2018-02-12T12:58:34.630Z,4.70
2018-02-12T13:01:03.152Z,4.57
2018-02-12T13:03:30.959Z,4.45
2018-02-12T13:05:58.713Z,4.22
2018-02-12T13:08:26.470Z,4.65
2018-02-12T13:10:54.289Z,5.32
2018-02-12T13:13:22.049Z,3.40
2018-02-12T13:15:49.817Z,2.85
2018-02-12T13:18:17.632Z,4.75
2018-02-12T13:20:45.388Z,4.53
2018-02-12T13:23:13.144Z,9.07
2018-02-12T13:25:40.960Z,6.57
2018-02-12T13:28:08.720Z,6.80
2018-02-12T13:30:36.472Z,7.80
2018-02-12T13:33:04.279Z,5.35
2018-02-12T13:35:32.032Z,5.57
2018-02-12T13:37:59.791Z,6.68
2018-02-12T13:40:27.600Z,4.47
2018-02-12T13:42:56.142Z,3.65
2018-02-12T13:45:23.905Z,6.78
2018-02-12T13:47:51.736Z,6.55
2018-02-12T13:50:19.495Z,5.97
2018-02-12T13:52:47.387Z,10.82
2018-02-12T13:55:15.200Z,5.05
2018-02-12T13:57:42.951Z,6.35
2018-02-12T14:00:11.481Z,7.45
2018-02-12T14:02:39.288Z,7.60
2018-02-12T14:05:07.811Z,8.07
2018-02-12T14:07:37.215Z,8.57
2018-02-12T14:10:05.016Z,6.68
2018-02-12T14:12:32.782Z,8.55
2018-02-12T14:15:00.548Z,8.93
2018-02-12T14:17:28.355Z,5.65
2018-02-12T14:19:56.108Z,6.47
2018-02-12T14:22:23.859Z,6.40
2018-02-12T14:24:52.440Z,6.82
2018-02-12T14:27:20.973Z,7.78
2018-02-12T14:29:48.723Z,7.60
2018-02-12T14:32:16.534Z,6.28
2018-02-12T14:34:45.053Z,6.53
2018-02-12T14:37:12.794Z,7.65
2018-02-12T14:39:40.600Z,5.43
2018-02-12T14:42:08.360Z,6.62
2018-02-12T14:44:36.115Z,6.70
2018-02-12T14:47:03.938Z,7.00
2018-02-12T14:49:31.695Z,9.18
2018-02-12T14:51:59.456Z,10.07
2018-02-12T14:54:27.290Z,6.95
2018-02-12T14:56:55.052Z,7.25
2018-02-12T14:59:22.808Z,8.85
2018-02-12T15:01:50.670Z,8.73
2018-02-12T15:04:18.421Z,9.82
2018-02-12T15:06:46.177Z,8.57
2018-02-12T15:09:13.999Z,9.90
2018-02-12T15:11:41.759Z,10.38
2018-02-12T15:14:09.519Z,9.05
2018-02-12T15:16:37.329Z,9.38
2018-02-12T15:19:05.096Z,9.35
2018-02-12T15:21:32.852Z,9.25
2018-02-12T15:24:00.668Z,10.85
2018-02-12T15:26:28.438Z,10.00
2018-02-12T15:28:56.192Z,11.65
2018-02-12T15:31:24.036Z,9.50
2018-02-12T15:33:52.627Z,10.52
2018-02-12T15:36:21.157Z,11.50
2018-02-12T15:38:48.968Z,10.40
2018-02-12T15:41:17.486Z,9.27
2018-02-12T15:43:45.772Z,10.15
2018-02-12T15:46:13.578Z,8.95
2018-02-12T15:48:42.125Z,8.55
2018-02-12T15:51:09.899Z,10.10
2018-02-12T15:53:37.756Z,12.85
2018-02-12T15:56:05.512Z,11.95
2018-02-12T15:58:34.045Z,9.38
2018-02-12T16:01:01.863Z,11.15
2018-02-12T16:03:29.619Z,11.90
2018-02-12T16:05:58.555Z,10.18
2018-02-12T16:08:26.374Z,9.98
2018-02-12T16:10:54.132Z,10.70
2018-02-12T16:13:21.896Z,8.85
2018-02-12T16:15:49.707Z,8.80
2018-02-12T16:18:17.481Z,9.32
2018-02-12T16:20:45.242Z,9.35
2018-02-12T16:23:13.057Z,11.50
2018-02-12T16:25:40.827Z,8.57
2018-02-12T16:28:08.583Z,8.90
2018-02-12T16:30:36.400Z,9.25
2018-02-12T16:33:04.177Z,9.00
2018-02-12T16:35:31.931Z,8.73
2018-02-12T16:37:59.751Z,9.23
2018-02-12T16:40:28.306Z,9.35
2018-02-12T16:42:56.109Z,8.63
2018-02-12T16:45:23.915Z,8.13
2018-02-12T16:47:51.682Z,10.38
2018-02-12T16:50:19.441Z,10.10
2018-02-12T16:52:47.259Z,12.00
2018-02-12T16:55:15.022Z,10.93
2018-02-12T16:57:42.798Z,10.60
2018-02-12T17:00:10.675Z,11.52
2018-02-12T17:02:38.444Z,12.27
2018-02-12T17:05:06.220Z,13.32
2018-02-12T17:07:34.043Z,14.87
2018-02-12T17:10:01.827Z,14.30
2018-02-12T17:12:29.588Z,16.40
2018-02-12T17:14:57.403Z,18.90
2018-02-12T17:17:25.932Z,27.25
2018-02-12T17:19:53.695Z,29.00
2018-02-12T17:22:21.512Z,38.78
2018-02-12T17:24:50.033Z,43.03
2018-02-12T17:27:17.792Z,40.15
2018-02-12T17:29:45.608Z,49.90
2018-02-12T17:32:14.129Z,44.75
2018-02-12T17:34:41.891Z,48.25
2018-02-12T17:37:09.713Z,48.17
2018-02-12T17:39:38.245Z,39.67
2018-02-12T17:42:06.013Z,45.42
2018-02-12T17:44:33.826Z,45.20
2018-02-12T17:47:02.353Z,43.53
2018-02-12T17:49:30.134Z,42.38
2018-02-12T17:51:58.034Z,41.88
2018-02-12T17:54:26.566Z,39.70
2018-02-12T17:56:54.328Z,39.90
2018-02-12T17:59:22.156Z,48.80
2018-02-12T18:01:49.913Z,48.72
2018-02-12T18:04:17.681Z,55.00
2018-02-12T18:06:45.500Z,59.17
2018-02-12T18:09:13.261Z,56.45
2018-02-12T18:11:41.020Z,52.65
2018-02-12T18:14:08.836Z,48.50
2018-02-12T18:16:36.591Z,47.62
2018-02-12T18:19:05.112Z,44.92
2018-02-12T18:21:33.684Z,49.13
2018-02-12T18:24:01.442Z,44.50
2018-02-12T18:26:29.217Z,45.35
2018-02-12T18:28:57.028Z,45.38
2018-02-12T18:31:24.792Z,44.67
2018-02-12T18:33:52.558Z,45.63
2018-02-12T18:36:20.415Z,46.47
2018-02-12T18:38:48.167Z,43.83
2018-02-12T18:41:16.687Z,40.42
2018-02-12T18:43:44.511Z,41.58
2018-02-12T18:46:13.046Z,45.72
2018-02-12T18:48:40.809Z,48.47
2018-02-12T18:51:08.636Z,38.97
2018-02-12T18:53:36.400Z,46.92
2018-02-12T18:56:04.217Z,38.25
2018-02-12T18:58:32.037Z,35.47
2018-02-12T19:00:59.791Z,39.08
2018-02-12T19:03:27.544Z,35.83
2018-02-12T19:05:55.384Z,37.35
2018-02-12T19:08:23.916Z,35.35
2018-02-12T19:10:51.691Z,39.10
2018-02-12T19:13:19.513Z,40.60
2018-02-12T19:15:47.291Z,41.80
2018-02-12T19:18:15.063Z,41.60
2018-02-12T19:20:43.655Z,43.80
2018-02-12T19:23:11.445Z,48.83
2018-02-12T19:25:39.199Z,44.42
2018-02-12T19:28:07.052Z,46.17
2018-02-12T19:30:34.827Z,51.40
2018-02-12T19:33:02.592Z,53.90
2018-02-12T19:35:30.404Z,51.90
2018-02-12T19:37:58.164Z,50.92
2018-02-12T19:40:25.925Z,50.05
2018-02-12T19:42:54.706Z,50.72
2018-02-12T19:45:22.473Z,53.67
2018-02-12T19:47:50.261Z,53.45
2018-02-12T19:50:18.080Z,52.35
2018-02-12T19:52:45.840Z,49.20
2018-02-12T19:55:13.600Z,46.20
2018-02-12T19:57:41.412Z,48.30
2018-02-12T20:00:09.956Z,49.03
2018-02-12T20:02:37.723Z,43.58
2018-02-12T20:05:05.567Z,43.60
2018-02-12T20:07:34.097Z,39.35
2018-02-12T20:10:01.851Z,46.08
2018-02-12T20:12:29.668Z,40.75
2018-02-12T20:14:58.191Z,45.35
2018-02-12T20:17:25.948Z,49.60
2018-02-12T20:19:53.758Z,47.62
2018-02-12T20:22:22.300Z,43.92
2018-02-12T20:24:50.069Z,43.67
2018-02-12T20:27:17.889Z,41.22
2018-02-12T20:29:45.643Z,38.10
2018-02-12T20:32:13.400Z,33.85
2018-02-12T20:34:42.012Z,37.00
2018-02-12T20:37:09.781Z,35.47
2018-02-12T20:39:37.558Z,35.42
2018-02-12T20:42:05.377Z,33.95
2018-02-12T20:44:33.172Z,32.40
2018-02-12T20:47:00.944Z,35.15
2018-02-12T20:49:28.767Z,34.15
2018-02-12T20:51:56.532Z,37.03
2018-02-12T20:54:24.382Z,34.92
2018-02-12T20:56:52.210Z,33.38
2018-02-12T20:59:20.070Z,34.97
2018-02-12T21:01:48.007Z,37.17
2018-02-12T21:04:15.820Z,36.45
2018-02-12T21:06:43.590Z,35.50
2018-02-12T21:09:12.116Z,35.75
2018-02-12T21:11:39.964Z,36.33
2018-02-12T21:14:07.753Z,36.83
2018-02-12T21:16:35.537Z,36.85
2018-02-12T21:19:03.358Z,40.47
2018-02-12T21:21:31.147Z,38.00
2018-02-12T21:23:58.909Z,37.97
2018-02-12T21:26:26.727Z,35.42
2018-02-12T21:28:54.483Z,36.35
2018-02-12T21:31:22.248Z,34.63
2018-02-12T21:33:50.064Z,35.83
2018-02-12T21:36:17.828Z,35.97
2018-02-12T21:38:45.596Z,36.05
2018-02-12T21:41:13.687Z,34.55
2018-02-12T21:43:42.401Z,32.30
2018-02-12T21:46:10.173Z,28.58
2018-02-12T21:48:38.091Z,29.60
2018-02-12T21:51:06.818Z,49.08
2018-02-12T21:53:34.711Z,39.22
2018-02-12T21:56:02.541Z,40.10
2018-02-12T21:58:30.308Z,99.95
2018-02-12T22:00:58.079Z,58.28
2018-02-12T22:03:25.899Z,42.28
2018-02-12T22:05:54.495Z,37.65
2018-02-12T22:08:22.260Z,31.00
2018-02-12T22:10:50.081Z,32.03
2018-02-12T22:13:17.837Z,30.90
2018-02-12T22:15:45.595Z,31.12
2018-02-12T22:18:13.416Z,30.25
2018-02-12T22:20:41.190Z,30.52
2018-02-12T22:23:09.098Z,29.95
2018-02-12T22:25:37.750Z,28.52
2018-02-12T22:28:05.510Z,29.67
2018-02-12T22:30:33.286Z,28.65
2018-02-12T22:33:01.120Z,28.70
2018-02-12T22:35:28.892Z,29.95
2018-02-12T22:37:56.673Z,29.70
2018-02-12T22:40:25.255Z,31.05
2018-02-12T22:42:53.024Z,27.65
2018-02-12T22:45:20.809Z,30.10
2018-02-12T22:47:49.416Z,32.42
2018-02-12T22:50:17.190Z,31.85
2018-02-12T22:52:44.947Z,31.95
2018-02-12T22:55:12.782Z,35.38
2018-02-12T22:57:41.319Z,36.67
2018-02-12T23:00:09.853Z,47.90
2018-02-12T23:02:37.682Z,43.90
2018-02-12T23:05:05.447Z,37.58
2018-02-12T23:07:33.211Z,40.88
2018-02-12T23:10:01.033Z,35.05
2018-02-12T23:12:29.579Z,32.38
2018-02-12T23:14:58.113Z,35.15
2018-02-12T23:17:25.927Z,40.20
2018-02-12T23:19:53.689Z,59.60
2018-02-12T23:22:21.444Z,47.67
2018-02-12T23:24:50.024Z,43.97
2018-02-12T23:27:18.577Z,39.13
2018-02-12T23:29:46.331Z,34.33
2018-02-12T23:32:14.151Z,34.10
2018-02-12T23:34:41.917Z,28.23
2018-02-12T23:37:09.681Z,33.03
2018-02-12T23:39:37.497Z,29.77
2018-02-12T23:42:05.258Z,29.02
2018-02-12T23:44:33.031Z,31.35
2018-02-12T23:47:01.620Z,29.65
2018-02-12T23:49:30.146Z,31.45
2018-02-12T23:51:57.908Z,30.88
2018-02-12T23:54:25.778Z,31.30
2018-02-12T23:56:53.543Z,30.85
2018-02-12T23:59:21.307Z,29.75
